createdAt,value
2018-02-19T00:02:06.140Z,26.47
2018-02-19T00:04:34.407Z,27.93
2018-02-19T00:07:02.653Z,27.13
2018-02-19T00:09:30.893Z,27.27
2018-02-19T00:12:00.187Z,27.20
2018-02-19T00:14:28.430Z,26.70
2018-02-19T00:16:56.673Z,26.90
2018-02-19T00:19:25.381Z,26.60
2018-02-19T00:21:53.625Z,27.40
2018-02-19T00:24:21.877Z,27.93
2018-02-19T00:26:50.151Z,30.30
2018-02-19T00:29:18.388Z,28.77
2018-02-19T00:31:46.645Z,28.40
2018-02-19T00:34:14.918Z,28.43
2018-02-19T00:36:43.161Z,27.50
2018-02-19T00:39:11.401Z,25.70
2018-02-19T00:41:40.066Z,25.20
2018-02-19T00:44:08.314Z,26.93
2018-02-19T00:46:36.566Z,26.60
2018-02-19T00:49:04.832Z,27.23
2018-02-19T00:51:33.094Z,28.73
2018-02-19T00:54:01.341Z,29.00
2018-02-19T00:56:29.796Z,27.87
2018-02-19T00:58:58.812Z,28.83
2018-02-19T01:01:27.065Z,28.00
2018-02-19T01:03:55.597Z,28.13
2018-02-19T01:06:23.988Z,28.67
2018-02-19T01:08:52.229Z,27.60
2018-02-19T01:11:20.503Z,27.50
2018-02-19T01:13:48.906Z,27.30
2018-02-19T01:16:17.150Z,27.07
2018-02-19T01:18:46.180Z,28.10
2018-02-19T01:21:14.425Z,26.80
2018-02-19T01:23:42.665Z,25.83
2018-02-19T01:26:11.145Z,28.10
2018-02-19T01:28:39.397Z,26.87
2018-02-19T01:31:07.640Z,25.97
2018-02-19T01:33:35.917Z,26.80
2018-02-19T01:36:04.173Z,27.07
2018-02-19T01:38:33.198Z,28.30
2018-02-19T01:41:01.472Z,26.57
2018-02-19T01:43:29.725Z,25.60
2018-02-19T01:45:57.981Z,26.23
2018-02-19T01:48:26.437Z,27.03
2018-02-19T01:50:54.681Z,27.80
2018-02-19T01:53:22.925Z,27.30
2018-02-19T01:55:51.209Z,25.60
2018-02-19T01:58:20.557Z,26.80
2018-02-19T02:00:48.937Z,25.80
2018-02-19T02:03:17.327Z,27.40
2018-02-19T02:05:45.573Z,26.30
2018-02-19T02:08:13.825Z,27.57
2018-02-19T02:10:42.453Z,26.47
2018-02-19T02:13:10.786Z,28.60
2018-02-19T02:15:39.806Z,27.53
2018-02-19T02:18:08.081Z,27.27
2018-02-19T02:20:36.329Z,26.63
2018-02-19T02:23:04.581Z,27.10
2018-02-19T02:25:32.857Z,26.37
2018-02-19T02:28:01.109Z,26.30
2018-02-19T02:30:29.366Z,27.60
2018-02-19T02:32:57.866Z,25.50
2018-02-19T02:35:26.117Z,27.10
2018-02-19T02:37:54.373Z,26.63
2018-02-19T02:40:23.419Z,26.83
2018-02-19T02:42:51.670Z,26.37
2018-02-19T02:45:19.912Z,26.80
2018-02-19T02:47:48.193Z,26.80
2018-02-19T02:50:16.463Z,27.43
2018-02-19T02:52:44.821Z,25.97
2018-02-19T02:55:13.277Z,24.70
2018-02-19T02:57:41.534Z,26.63
2018-02-19T03:00:10.002Z,24.30
2018-02-19T03:02:39.039Z,24.90
2018-02-19T03:05:07.294Z,25.37
2018-02-19T03:07:35.549Z,25.60
2018-02-19T03:10:03.825Z,25.20
2018-02-19T03:12:32.838Z,24.73
2018-02-19T03:15:01.092Z,25.20
2018-02-19T03:17:29.749Z,27.33
2018-02-19T03:19:59.560Z,24.87
2018-02-19T03:22:27.757Z,22.13
2018-02-19T03:24:56.028Z,24.00
2018-02-19T03:27:24.281Z,25.20
2018-02-19T03:29:52.745Z,25.70
2018-02-19T03:32:21.025Z,25.10
2018-02-19T03:34:49.269Z,25.00
2018-02-19T03:37:17.517Z,25.87
2018-02-19T03:39:46.873Z,26.00
2018-02-19T03:42:15.125Z,28.17
2018-02-19T03:44:43.369Z,27.33
2018-02-19T03:47:11.641Z,28.70
2018-02-19T03:49:39.897Z,28.57
2018-02-19T03:52:08.149Z,27.93
2018-02-19T03:54:36.425Z,27.77
2018-02-19T03:57:04.677Z,27.83
2018-02-19T03:59:32.926Z,25.17
2018-02-19T04:02:01.982Z,25.13
2018-02-19T04:04:30.233Z,26.80
2018-02-19T04:06:58.490Z,26.10
2018-02-19T04:09:26.762Z,25.90
2018-02-19T04:11:55.793Z,25.00
2018-02-19T04:14:24.409Z,26.50
2018-02-19T04:16:52.682Z,25.43
2018-02-19T04:19:20.936Z,25.23
2018-02-19T04:21:49.326Z,23.83
2018-02-19T04:24:18.011Z,25.87
2018-02-19T04:26:46.264Z,22.97
2018-02-19T04:29:14.517Z,25.60
2018-02-19T04:31:42.789Z,25.07
2018-02-19T04:34:11.806Z,27.23
2018-02-19T04:36:40.062Z,25.60
2018-02-19T04:39:08.339Z,26.83
2018-02-19T04:41:36.581Z,24.97
2018-02-19T04:44:04.825Z,24.97
2018-02-19T04:46:34.807Z,25.07
2018-02-19T04:49:03.049Z,26.27
2018-02-19T04:51:31.302Z,23.03
2018-02-19T04:53:59.741Z,25.10
2018-02-19T04:56:28.769Z,25.50
2018-02-19T04:58:57.020Z,25.87
2018-02-19T05:01:25.296Z,26.20
2018-02-19T05:03:53.872Z,25.07
2018-02-19T05:06:22.904Z,25.47
2018-02-19T05:08:51.561Z,24.07
2018-02-19T05:11:20.579Z,26.70
2018-02-19T05:13:48.824Z,26.03
2018-02-19T05:16:17.099Z,26.50
2018-02-19T05:18:45.353Z,25.30
2018-02-19T05:21:13.616Z,25.90
2018-02-19T05:23:43.054Z,27.37
2018-02-19T05:26:12.081Z,30.00
2018-02-19T05:28:40.481Z,30.77
2018-02-19T05:31:09.040Z,29.07
2018-02-19T05:33:37.562Z,30.33
2018-02-19T05:36:05.804Z,28.97
2018-02-19T05:38:34.305Z,27.20
2018-02-19T05:41:02.553Z,29.50
2018-02-19T05:43:30.806Z,28.07
2018-02-19T05:45:59.257Z,26.63
2018-02-19T05:48:27.633Z,27.80
2018-02-19T05:50:55.865Z,27.57
2018-02-19T05:53:24.529Z,28.63
2018-02-19T05:55:53.553Z,30.80
2018-02-19T05:58:26.258Z,31.23
2018-02-19T06:00:54.509Z,29.30
2018-02-19T06:03:22.757Z,29.97
2018-02-19T06:05:51.433Z,28.97
2018-02-19T06:08:19.684Z,28.20
2018-02-19T06:10:48.096Z,31.20
2018-02-19T06:13:16.545Z,28.43
2018-02-19T06:15:44.785Z,27.40
2018-02-19T06:18:13.037Z,28.30
2018-02-19T06:20:41.322Z,28.10
2018-02-19T06:23:10.341Z,26.20
2018-02-19T06:25:38.588Z,26.57
2018-02-19T06:28:07.117Z,25.37
2018-02-19T06:30:35.383Z,29.63
2018-02-19T06:33:03.625Z,28.90
2018-02-19T06:35:32.262Z,28.10
2018-02-19T06:38:00.580Z,30.40
2018-02-19T06:40:29.613Z,28.87
2018-02-19T06:42:57.881Z,29.80
2018-02-19T06:45:26.345Z,27.80
2018-02-19T06:47:54.603Z,25.80
2018-02-19T06:50:22.865Z,28.27
2018-02-19T06:52:51.117Z,26.70
2018-02-19T06:55:19.365Z,28.07
2018-02-19T06:57:48.533Z,27.13
2018-02-19T07:00:17.597Z,29.33
2018-02-19T07:02:45.836Z,28.63
2018-02-19T07:05:15.038Z,30.97
2018-02-19T07:07:43.691Z,29.73
2018-02-19T07:10:12.688Z,27.17
2018-02-19T07:12:40.961Z,28.30
2018-02-19T07:15:09.985Z,27.77
2018-02-19T07:17:38.228Z,29.67
2018-02-19T07:20:07.072Z,31.03
2018-02-19T07:22:35.765Z,31.40
2018-02-19T07:25:04.038Z,27.17
2018-02-19T07:27:32.517Z,26.80
2018-02-19T07:30:00.772Z,27.37
2018-02-19T07:32:29.020Z,27.23
2018-02-19T07:34:57.289Z,29.80
2018-02-19T07:37:25.836Z,27.43
2018-02-19T07:39:54.065Z,28.23
2018-02-19T07:42:23.401Z,28.33
2018-02-19T07:44:51.860Z,29.20
2018-02-19T07:47:20.094Z,29.40
2018-02-19T07:49:48.857Z,27.30
2018-02-19T07:52:17.105Z,26.47
2018-02-19T07:54:45.357Z,27.03
2018-02-19T07:57:13.805Z,26.50
2018-02-19T07:59:42.042Z,27.80
2018-02-19T08:02:10.289Z,28.17
2018-02-19T08:04:38.821Z,29.20
2018-02-19T08:07:07.072Z,30.13
2018-02-19T08:09:35.580Z,30.00
2018-02-19T08:12:03.853Z,27.13
2018-02-19T08:14:32.109Z,28.27
2018-02-19T08:17:00.369Z,28.37
2018-02-19T08:19:29.412Z,26.90
2018-02-19T08:21:57.657Z,28.70
2018-02-19T08:24:25.908Z,29.70
2018-02-19T08:26:54.536Z,27.53
2018-02-19T08:29:22.785Z,28.03
2018-02-19T08:31:51.298Z,27.97
2018-02-19T08:34:19.569Z,26.40
2018-02-19T08:36:47.977Z,25.03
2018-02-19T08:39:16.226Z,26.80
2018-02-19T08:41:44.493Z,27.70
2018-02-19T08:44:12.917Z,28.70
2018-02-19T08:46:41.206Z,25.70
2018-02-19T08:49:09.738Z,28.77
2018-02-19T08:51:37.980Z,27.03
2018-02-19T08:54:07.050Z,27.37
2018-02-19T08:56:35.550Z,27.40
2018-02-19T08:59:03.777Z,26.47
2018-02-19T09:01:32.237Z,25.50
2018-02-19T09:04:00.500Z,26.17
2018-02-19T09:06:29.508Z,22.53
2018-02-19T09:08:57.756Z,23.60
2018-02-19T09:11:26.320Z,26.00
2018-02-19T09:13:54.569Z,22.97
2018-02-19T09:16:22.809Z,23.13
2018-02-19T09:18:51.108Z,23.57
2018-02-19T09:21:19.465Z,22.30
2018-02-19T09:23:48.476Z,24.10
2018-02-19T09:26:17.072Z,22.20
2018-02-19T09:28:45.491Z,22.60
2018-02-19T09:31:13.876Z,19.67
2018-02-19T09:33:42.173Z,17.40
2018-02-19T09:36:10.638Z,16.20
2018-02-19T09:38:40.305Z,15.40
2018-02-19T09:41:08.564Z,13.00
2018-02-19T09:43:37.069Z,12.70
2018-02-19T09:46:05.319Z,12.90
2018-02-19T09:48:33.778Z,13.50
2018-02-19T09:51:02.786Z,12.13
2018-02-19T09:53:31.025Z,12.70
2018-02-19T09:55:59.569Z,13.40
2018-02-19T09:58:27.870Z,11.73
2018-02-19T10:00:56.061Z,12.10
2018-02-19T10:03:24.325Z,12.50
2018-02-19T10:05:52.718Z,13.13
2018-02-19T10:08:20.965Z,13.00
2018-02-19T10:10:49.220Z,13.57
2018-02-19T10:13:17.486Z,14.50
2018-02-19T10:15:45.738Z,14.40
2018-02-19T10:18:14.145Z,14.30
2018-02-19T10:20:42.388Z,12.63
2018-02-19T10:23:10.641Z,12.77
2018-02-19T10:25:38.901Z,12.87
2018-02-19T10:28:07.154Z,12.80
2018-02-19T10:30:35.586Z,11.87
2018-02-19T10:33:03.850Z,10.27
2018-02-19T10:35:32.085Z,12.37
2018-02-19T10:38:00.337Z,12.90
2018-02-19T10:40:28.683Z,12.90
2018-02-19T10:42:56.909Z,13.73
2018-02-19T10:45:25.148Z,11.77
2018-02-19T10:47:53.429Z,13.87
2018-02-19T10:50:21.669Z,13.30
2018-02-19T10:52:50.202Z,12.30
2018-02-19T10:55:18.529Z,13.40
2018-02-19T10:57:46.825Z,12.43
2018-02-19T11:00:15.219Z,11.67
2018-02-19T11:02:43.974Z,12.87
2018-02-19T11:05:12.218Z,12.57
2018-02-19T11:07:40.460Z,12.03
2018-02-19T11:10:08.927Z,12.10
2018-02-19T11:12:37.456Z,12.63
2018-02-19T11:15:06.474Z,12.30
2018-02-19T11:17:34.742Z,12.47
2018-02-19T11:20:02.981Z,11.20
2018-02-19T11:22:32.474Z,12.93
2018-02-19T11:25:00.959Z,10.50
2018-02-19T11:27:29.301Z,10.20
2018-02-19T11:29:57.547Z,12.53
2018-02-19T11:32:25.809Z,12.80
2018-02-19T11:34:54.818Z,13.03
2018-02-19T11:37:23.058Z,12.37
2018-02-19T11:39:51.324Z,12.73
2018-02-19T11:42:19.560Z,12.93
2018-02-19T11:44:47.928Z,12.27
2018-02-19T11:47:17.010Z,12.37
2018-02-19T11:49:45.246Z,11.40
2018-02-19T11:52:13.490Z,12.63
2018-02-19T11:54:41.788Z,12.60
2018-02-19T11:57:10.011Z,12.90
2018-02-19T11:59:38.250Z,12.70
2018-02-19T12:02:06.518Z,12.80
2018-02-19T12:04:34.782Z,12.23
2018-02-19T12:07:03.027Z,12.70
2018-02-19T12:09:32.390Z,12.67
2018-02-19T12:12:00.620Z,13.57
2018-02-19T12:14:29.097Z,12.20
2018-02-19T12:16:57.361Z,13.63
2018-02-19T12:19:25.611Z,15.80
2018-02-19T12:21:54.079Z,12.47
2018-02-19T12:24:22.356Z,12.10
2018-02-19T12:26:50.590Z,12.37
2018-02-19T12:29:18.909Z,12.87
2018-02-19T12:31:47.480Z,12.13
2018-02-19T12:34:15.727Z,12.40
2018-02-19T12:36:43.973Z,12.97
2018-02-19T12:39:12.254Z,11.70
2018-02-19T12:41:40.504Z,11.80
2018-02-19T12:44:08.794Z,12.60
2018-02-19T12:46:37.030Z,13.03
2018-02-19T12:49:05.290Z,12.93
2018-02-19T12:51:33.525Z,11.93
2018-02-19T12:54:01.960Z,12.67
2018-02-19T12:56:30.348Z,11.97
2018-02-19T12:58:58.593Z,12.77
2018-02-19T13:01:26.885Z,13.40
2018-02-19T13:03:56.333Z,13.33
2018-02-19T13:06:24.581Z,12.40
2018-02-19T13:08:52.865Z,12.80
2018-02-19T13:11:21.161Z,12.10
2018-02-19T13:13:49.534Z,12.60
2018-02-19T13:16:18.293Z,12.63
2018-02-19T13:18:47.529Z,13.10
2018-02-19T13:21:16.082Z,12.23
2018-02-19T13:23:44.292Z,14.17
2018-02-19T13:26:12.521Z,13.33
2018-02-19T13:28:40.765Z,12.57
2018-02-19T13:31:09.793Z,13.37
2018-02-19T13:33:38.037Z,13.83
2018-02-19T13:36:06.281Z,12.47
2018-02-19T13:38:34.638Z,12.70
2018-02-19T13:41:04.074Z,12.30
2018-02-19T13:43:32.442Z,12.83
2018-02-19T13:46:00.693Z,11.97
2018-02-19T13:48:28.941Z,12.60
2018-02-19T13:50:57.270Z,13.20
2018-02-19T13:53:25.521Z,12.30
2018-02-19T13:55:53.825Z,13.20
2018-02-19T13:58:22.069Z,12.00
2018-02-19T14:00:50.381Z,11.40
2018-02-19T14:03:18.628Z,12.87
2018-02-19T14:05:46.901Z,13.27
2018-02-19T14:08:15.172Z,13.00
2018-02-19T14:10:43.420Z,13.10
2018-02-19T14:13:11.673Z,12.77
2018-02-19T14:15:39.973Z,13.20
2018-02-19T14:18:09.517Z,13.90
2018-02-19T14:20:38.130Z,13.57
2018-02-19T14:23:06.420Z,13.80
2018-02-19T14:25:34.668Z,12.53
2018-02-19T14:28:02.910Z,12.33
2018-02-19T14:30:31.177Z,12.83
2018-02-19T14:33:00.236Z,13.70
2018-02-19T14:35:28.465Z,11.27
2018-02-19T14:37:56.740Z,14.57
2018-02-19T14:40:24.989Z,14.37
2018-02-19T14:42:53.248Z,13.93
2018-02-19T14:45:21.739Z,13.93
2018-02-19T14:47:49.985Z,14.70
2018-02-19T14:50:18.229Z,12.57
2018-02-19T14:52:46.497Z,12.60
2018-02-19T14:55:14.739Z,13.10
2018-02-19T14:57:44.585Z,13.97
2018-02-19T15:00:13.631Z,13.37
2018-02-19T15:02:42.005Z,13.30
2018-02-19T15:05:10.381Z,12.93
2018-02-19T15:07:38.874Z,12.73
2018-02-19T15:10:07.119Z,14.43
2018-02-19T15:12:35.365Z,14.53
2018-02-19T15:15:03.642Z,13.80
2018-02-19T15:17:32.086Z,12.90
2018-02-19T15:20:00.882Z,12.97
2018-02-19T15:22:29.148Z,14.27
2018-02-19T15:24:57.409Z,13.97
2018-02-19T15:27:25.653Z,13.70
2018-02-19T15:29:55.093Z,13.40
2018-02-19T15:32:23.350Z,13.80
2018-02-19T15:34:51.776Z,14.13
2018-02-19T15:37:20.049Z,13.10
2018-02-19T15:39:48.305Z,12.90
2018-02-19T15:42:16.697Z,15.17
2018-02-19T15:44:44.961Z,13.70
2018-02-19T15:47:13.216Z,13.23
2018-02-19T15:49:41.629Z,13.23
2018-02-19T15:52:10.193Z,12.23
2018-02-19T15:54:38.433Z,13.80
2018-02-19T15:57:06.689Z,13.60
2018-02-19T15:59:34.953Z,14.07
2018-02-19T16:02:03.202Z,14.20
2018-02-19T16:04:31.597Z,13.37
2018-02-19T16:06:59.844Z,12.80
2018-02-19T16:09:28.089Z,13.30
2018-02-19T16:11:56.333Z,13.30
2018-02-19T16:14:24.808Z,13.23
2018-02-19T16:16:53.046Z,13.70
2018-02-19T16:19:21.286Z,13.40
2018-02-19T16:21:49.553Z,14.40
2018-02-19T16:24:18.835Z,14.83
2018-02-19T16:26:47.126Z,14.57
2018-02-19T16:29:15.561Z,14.33
2018-02-19T16:31:44.573Z,13.30
2018-02-19T16:34:12.980Z,14.17
2018-02-19T16:36:41.697Z,14.90
2018-02-19T16:39:10.027Z,12.80
2018-02-19T16:41:39.241Z,13.33
2018-02-19T16:44:08.574Z,13.47
2018-02-19T16:46:37.586Z,13.43
2018-02-19T16:49:05.830Z,12.70
2018-02-19T16:51:34.162Z,14.47
2018-02-19T16:54:02.401Z,13.43
2018-02-19T16:56:31.421Z,13.93
2018-02-19T16:59:00.117Z,13.40
2018-02-19T17:01:28.360Z,13.53
2018-02-19T17:03:56.697Z,12.97
2018-02-19T17:06:24.957Z,12.70
2018-02-19T17:08:53.265Z,12.60
2018-02-19T17:11:21.501Z,13.60
2018-02-19T17:13:49.786Z,13.10
2018-02-19T17:16:18.105Z,14.53
2018-02-19T17:18:46.474Z,13.20
2018-02-19T17:21:18.341Z,15.50
2018-02-19T17:23:46.588Z,14.03
2018-02-19T17:26:14.985Z,13.90
2018-02-19T17:28:43.241Z,14.03
2018-02-19T17:31:11.489Z,12.30
2018-02-19T17:33:39.734Z,13.03
2018-02-19T17:36:08.266Z,13.57
2018-02-19T17:38:36.521Z,13.23
2018-02-19T17:41:04.771Z,13.83
2018-02-19T17:43:33.404Z,14.87
2018-02-19T17:46:01.713Z,13.80
2018-02-19T17:48:29.957Z,14.03
2018-02-19T17:50:58.229Z,14.40
2018-02-19T17:53:26.550Z,13.30
2018-02-19T17:55:54.921Z,14.80
2018-02-19T17:58:23.497Z,13.67
2018-02-19T18:00:51.728Z,14.03
2018-02-19T18:03:20.086Z,13.70
2018-02-19T18:05:50.361Z,15.37
2018-02-19T18:08:18.664Z,16.30
2018-02-19T18:10:47.042Z,15.47
2018-02-19T18:13:16.381Z,14.80
2018-02-19T18:15:45.384Z,13.20
2018-02-19T18:18:13.721Z,13.83
2018-02-19T18:20:42.153Z,15.13
2018-02-19T18:23:12.816Z,15.87
2018-02-19T18:25:44.185Z,13.93
2018-02-19T18:28:14.298Z,14.47
2018-02-19T18:30:43.798Z,14.43
2018-02-19T18:33:12.129Z,15.23
2018-02-19T18:35:40.374Z,16.23
2018-02-19T18:38:08.765Z,16.73
2018-02-19T18:40:37.797Z,15.73
2018-02-19T18:43:08.341Z,15.83
2018-02-19T18:45:36.648Z,15.10
2018-02-19T18:48:05.405Z,13.60
2018-02-19T18:50:33.757Z,17.13
2018-02-19T18:53:02.006Z,16.00
2018-02-19T18:55:30.525Z,16.27
2018-02-19T18:57:58.845Z,15.43
2018-02-19T19:00:27.092Z,15.20
2018-02-19T19:02:55.810Z,15.60
2018-02-19T19:05:24.033Z,15.17
2018-02-19T19:08:04.413Z,15.87
2018-02-19T19:10:46.940Z,16.50
2018-02-19T19:13:15.261Z,19.00
2018-02-19T19:15:44.323Z,16.67
2018-02-19T19:18:12.971Z,16.73
2018-02-19T19:20:41.253Z,16.33
2018-02-19T19:23:09.557Z,15.73
2018-02-19T19:25:37.798Z,17.67
2018-02-19T19:28:07.124Z,18.10
2018-02-19T19:30:35.373Z,16.20
2018-02-19T19:33:03.629Z,18.30
2018-02-19T19:35:31.907Z,18.77
2018-02-19T19:38:02.099Z,20.40
2018-02-19T19:40:30.472Z,17.00
2018-02-19T19:42:58.898Z,16.33
2018-02-19T19:45:27.889Z,16.60
2018-02-19T19:47:56.901Z,15.57
2018-02-19T19:50:25.340Z,16.40
2018-02-19T19:52:53.573Z,17.63
2018-02-19T19:55:21.818Z,16.97
2018-02-19T19:57:50.144Z,17.13
2018-02-19T20:00:20.609Z,16.40
2018-02-19T20:02:49.631Z,16.50
2018-02-19T20:05:18.901Z,17.37
2018-02-19T20:07:49.102Z,16.87
2018-02-19T20:10:19.324Z,18.07
2018-02-19T20:12:48.710Z,17.40
2018-02-19T20:15:16.997Z,18.90
2018-02-19T20:17:45.384Z,16.00
2018-02-19T20:20:13.680Z,17.10
2018-02-19T20:22:41.921Z,17.00
2018-02-19T20:25:10.213Z,18.33
2018-02-19T20:27:38.504Z,18.97
2018-02-19T20:30:06.745Z,17.40
2018-02-19T20:32:35.001Z,18.60
2018-02-19T20:35:03.310Z,17.40
2018-02-19T20:37:31.545Z,19.23
2018-02-19T20:40:02.020Z,17.80
2018-02-19T20:42:30.430Z,19.00
2018-02-19T20:44:59.437Z,18.37
2018-02-19T20:47:27.689Z,19.13
2018-02-19T20:49:56.185Z,17.80
2018-02-19T20:52:25.199Z,18.60
2018-02-19T20:54:53.540Z,19.03
2018-02-19T20:57:21.985Z,18.93
2018-02-19T20:59:51.209Z,19.10
2018-02-19T21:02:19.504Z,17.50
2018-02-19T21:04:48.351Z,18.77
2018-02-19T21:07:16.611Z,18.20
2018-02-19T21:09:44.853Z,18.13
2018-02-19T21:12:13.122Z,19.33
2018-02-19T21:14:41.485Z,20.30
2018-02-19T21:17:10.633Z,18.30
2018-02-19T21:19:40.192Z,18.87
2018-02-19T21:22:10.631Z,18.50
2018-02-19T21:24:38.881Z,19.50
2018-02-19T21:27:07.141Z,19.00
2018-02-19T21:29:37.597Z,20.77
2018-02-19T21:32:05.873Z,18.67
2018-02-19T21:34:35.305Z,19.97
2018-02-19T21:37:04.309Z,20.40
2018-02-19T21:39:32.562Z,20.37
2018-02-19T21:42:01.109Z,19.33
2018-02-19T21:44:29.360Z,20.53
2018-02-19T21:46:57.609Z,18.10
2018-02-19T21:49:26.237Z,19.63
2018-02-19T21:51:54.478Z,20.77
2018-02-19T21:54:22.721Z,19.90
2018-02-19T21:56:51.119Z,20.23
2018-02-19T21:59:19.350Z,19.30
2018-02-19T22:01:47.609Z,20.30
2018-02-19T22:04:15.971Z,18.70
2018-02-19T22:06:44.285Z,19.20
2018-02-19T22:09:12.523Z,20.70
2018-02-19T22:11:40.785Z,19.43
2018-02-19T22:14:09.041Z,20.57
2018-02-19T22:16:37.293Z,20.87
2018-02-19T22:19:05.546Z,20.97
2018-02-19T22:21:33.789Z,21.13
2018-02-19T22:24:02.041Z,20.80
2018-02-19T22:26:30.700Z,20.10
2018-02-19T22:28:59.373Z,20.13
2018-02-19T22:31:27.617Z,20.50
2018-02-19T22:33:55.893Z,20.70
2018-02-19T22:36:24.146Z,21.20
2018-02-19T22:38:52.392Z,21.13
2018-02-19T22:41:20.657Z,21.20
2018-02-19T22:43:48.897Z,20.67
2018-02-19T22:46:17.145Z,21.60
2018-02-19T22:48:45.813Z,21.07
2018-02-19T22:51:14.063Z,22.63
2018-02-19T22:53:42.302Z,20.40
2018-02-19T22:56:10.568Z,20.33
2018-02-19T22:58:38.818Z,20.63
2018-02-19T23:01:07.054Z,21.20
2018-02-19T23:03:36.091Z,20.93
2018-02-19T23:06:04.347Z,20.27
2018-02-19T23:08:32.608Z,19.23
2018-02-19T23:11:01.222Z,18.83
2018-02-19T23:13:29.474Z,19.73
2018-02-19T23:15:57.726Z,19.80
2018-02-19T23:18:26.007Z,19.17
2018-02-19T23:20:55.026Z,19.20
2018-02-19T23:23:23.386Z,21.60
2018-02-19T23:25:52.426Z,20.73
2018-02-19T23:28:20.674Z,20.90
2018-02-19T23:30:49.138Z,18.70
2018-02-19T23:33:18.487Z,19.90
2018-02-19T23:35:46.749Z,21.00
2018-02-19T23:38:14.993Z,21.97
2018-02-19T23:40:43.266Z,21.47
2018-02-19T23:43:12.278Z,21.53
2018-02-19T23:45:40.521Z,20.57
2018-02-19T23:48:08.803Z,22.10
2018-02-19T23:50:37.814Z,20.83
2018-02-19T23:53:06.067Z,22.23
2018-02-19T23:55:34.550Z,19.70
2018-02-19T23:58:03.747Z,20.10
